createdAt,value
2023-02-02T00:00:46.012Z,-1.25
2023-02-02T00:03:50.933Z,-1.26
2023-02-02T00:06:53.571Z,-1.25
2023-02-02T00:09:55.419Z,-1.30
2023-02-02T00:12:58.169Z,-1.26
2023-02-02T00:16:37.373Z,-1.28
2023-02-02T00:19:39.305Z,-1.29
2023-02-02T00:22:41.235Z,-1.26
2023-02-02T00:25:43.654Z,-1.28
2023-02-02T00:28:45.741Z,-1.34
2023-02-02T00:31:48.361Z,-1.33
2023-02-02T00:34:50.334Z,-1.38
2023-02-02T00:37:52.242Z,-1.41
2023-02-02T00:40:54.150Z,-1.39
2023-02-02T00:44:14.533Z,-1.36
2023-02-02T00:47:18.025Z,-1.32
2023-02-02T00:50:21.775Z,-1.29
2023-02-02T00:53:23.923Z,-1.29
2023-02-02T00:56:26.084Z,-1.27
2023-02-02T00:59:28.181Z,-1.22
2023-02-02T01:02:30.188Z,-1.24
2023-02-02T01:05:33.921Z,-1.22
2023-02-02T01:08:36.017Z,-1.22
2023-02-02T01:11:37.907Z,-1.22
2023-02-02T01:14:39.847Z,-1.18
2023-02-02T01:17:41.733Z,-1.25
2023-02-02T01:20:43.669Z,-1.25
2023-02-02T01:23:45.569Z,-1.26
2023-02-02T01:26:47.576Z,-1.25
2023-02-02T01:29:49.488Z,-1.23
2023-02-02T01:32:51.605Z,-1.20
2023-02-02T01:35:56.125Z,-1.25
2023-02-02T01:38:58.349Z,-1.24
2023-02-02T01:42:00.312Z,-1.24
2023-02-02T01:45:02.120Z,-1.23
2023-02-02T01:48:04.168Z,-1.21
2023-02-02T01:51:09.872Z,-1.17
2023-02-02T01:54:35.423Z,-1.20
2023-02-02T01:57:42.192Z,-1.19
2023-02-02T02:00:46.933Z,-1.20
2023-02-02T02:03:49.011Z,-1.16
2023-02-02T02:06:53.733Z,-1.13
2023-02-02T02:09:55.886Z,-1.10
2023-02-02T02:12:58.185Z,-1.09
2023-02-02T02:16:19.746Z,-1.08
2023-02-02T02:20:05.661Z,-1.11
2023-02-02T02:23:53.089Z,-1.11
2023-02-02T02:27:24.605Z,-1.14
2023-02-02T02:31:01.590Z,-1.14
2023-02-02T02:34:07.958Z,-1.18
2023-02-02T02:37:30.568Z,-1.15
2023-02-02T02:40:41.633Z,-1.06
2023-02-02T02:43:52.998Z,-1.06
2023-02-02T02:46:57.309Z,-1.08
2023-02-02T02:49:59.663Z,-1.07
2023-02-02T02:53:09.735Z,-1.03
2023-02-02T02:56:25.033Z,-1.02
2023-02-02T02:59:53.337Z,-0.96
2023-02-02T03:03:16.545Z,-0.94
2023-02-02T03:06:28.220Z,-0.93
2023-02-02T03:09:37.200Z,-0.90
2023-02-02T03:12:47.530Z,-0.89
2023-02-02T03:15:49.589Z,-0.91
2023-02-02T03:18:51.504Z,-0.90
2023-02-02T03:21:53.425Z,-0.88
2023-02-02T03:24:57.003Z,-0.86
2023-02-02T03:27:59.074Z,-0.83
2023-02-02T03:31:02.278Z,-0.83
2023-02-02T03:34:04.217Z,-0.85
2023-02-02T03:37:06.082Z,-0.90
2023-02-02T03:40:08.570Z,-0.93
2023-02-02T03:43:10.979Z,-0.95
2023-02-02T03:46:12.918Z,-0.91
2023-02-02T03:49:14.912Z,-0.95
2023-02-02T03:52:16.820Z,-0.89
2023-02-02T03:55:18.692Z,-0.91
2023-02-02T03:58:22.408Z,-0.89
2023-02-02T04:01:29.399Z,-0.84
2023-02-02T04:04:31.398Z,-0.84
2023-02-02T04:07:33.341Z,-0.80
2023-02-02T04:10:35.217Z,-0.78
2023-02-02T04:13:37.222Z,-0.80
2023-02-02T04:16:39.136Z,-0.81
2023-02-02T04:19:41.129Z,-0.77
2023-02-02T04:22:42.945Z,-0.75
2023-02-02T04:25:51.641Z,-0.75
2023-02-02T04:28:54.075Z,-0.73
2023-02-02T04:31:56.243Z,-0.70
2023-02-02T04:34:58.228Z,-0.68
2023-02-02T04:38:00.129Z,-0.71
2023-02-02T04:41:07.920Z,-0.71
2023-02-02T04:44:18.030Z,-0.67
2023-02-02T04:47:19.918Z,-0.70
2023-02-02T04:50:21.862Z,-0.73
2023-02-02T04:53:24.811Z,-0.72
2023-02-02T04:56:26.575Z,-0.70
2023-02-02T04:59:30.101Z,-0.64
2023-02-02T05:02:32.018Z,-0.62
2023-02-02T05:05:33.980Z,-0.63
2023-02-02T05:08:36.794Z,-0.63
2023-02-02T05:11:41.250Z,-0.63
2023-02-02T05:14:43.200Z,-0.67
2023-02-02T05:17:45.129Z,-0.63
2023-02-02T05:20:47.085Z,-0.61
2023-02-02T05:23:49.463Z,-0.63
2023-02-02T05:26:52.989Z,-0.62
2023-02-02T05:29:54.939Z,-0.60
2023-02-02T05:32:56.761Z,-0.61
2023-02-02T05:35:58.645Z,-0.56
2023-02-02T05:39:00.582Z,-0.52
2023-02-02T08:55:16.127Z,0.94
2023-02-02T08:58:18.023Z,1.09
2023-02-02T09:01:25.544Z,1.17
2023-02-02T09:04:27.527Z,1.28
2023-02-02T09:07:29.402Z,1.36
2023-02-02T09:10:32.262Z,1.44
2023-02-02T09:13:35.019Z,1.43
2023-02-02T09:16:37.100Z,1.49
2023-02-02T09:19:39.118Z,1.51
2023-02-02T09:22:41.089Z,1.56
2023-02-02T09:25:43.050Z,1.60
2023-02-02T09:28:54.349Z,1.66
2023-02-02T09:31:56.442Z,1.65
2023-02-02T09:34:58.420Z,1.69
2023-02-02T09:38:00.356Z,1.70
2023-02-02T09:41:14.629Z,1.75
2023-02-02T09:44:46.113Z,1.81
2023-02-02T09:47:58.589Z,1.77
2023-02-02T09:51:06.995Z,1.75
2023-02-02T09:54:19.786Z,1.83
2023-02-02T09:57:31.230Z,1.87
2023-02-02T10:00:39.853Z,2.00
2023-02-02T10:04:01.366Z,2.11
2023-02-02T10:07:14.312Z,2.23
2023-02-02T10:10:21.604Z,2.29
2023-02-02T10:13:33.633Z,2.22
2023-02-02T10:16:37.958Z,2.21
2023-02-02T10:19:42.533Z,2.18
2023-02-02T10:22:46.586Z,2.24
2023-02-02T10:26:12.011Z,2.23
2023-02-02T10:29:23.674Z,2.22
2023-02-02T10:32:29.072Z,2.17
2023-02-02T10:35:40.465Z,2.28
2023-02-02T10:38:54.562Z,2.24
2023-02-02T10:42:25.519Z,2.24
2023-02-02T10:45:27.595Z,2.21
2023-02-02T10:48:35.905Z,2.18
2023-02-02T10:51:38.565Z,2.19
2023-02-02T10:54:55.765Z,2.20
2023-02-02T10:58:03.306Z,2.18
2023-02-02T11:01:11.606Z,2.17
2023-02-02T11:04:32.572Z,2.27
2023-02-02T11:07:36.220Z,2.31
2023-02-02T11:10:38.235Z,2.33
2023-02-02T11:13:55.424Z,2.44
2023-02-02T11:17:24.955Z,2.54
2023-02-02T11:20:39.164Z,2.50
2023-02-02T11:23:41.174Z,2.41
2023-02-02T11:26:55.956Z,2.38
2023-02-02T11:30:00.037Z,2.40
2023-02-02T11:33:30.147Z,2.40
2023-02-02T11:36:32.247Z,2.53
2023-02-02T11:39:34.279Z,2.66
2023-02-02T11:42:36.263Z,2.66
2023-02-02T11:45:41.844Z,2.65
2023-02-02T11:49:00.968Z,2.57
2023-02-02T11:52:06.816Z,2.53
2023-02-02T11:55:17.613Z,2.58
2023-02-02T11:58:25.148Z,2.63
2023-02-02T12:01:35.785Z,2.62
2023-02-02T12:04:37.769Z,2.59
2023-02-02T12:07:40.759Z,2.58
2023-02-02T12:10:46.858Z,2.52
2023-02-02T12:14:00.959Z,2.58
2023-02-02T12:17:12.102Z,2.59
2023-02-02T12:20:46.750Z,2.57
2023-02-02T12:24:18.599Z,2.53
2023-02-02T12:27:42.219Z,2.47
2023-02-02T12:31:07.652Z,2.44
2023-02-02T12:34:30.716Z,2.41
2023-02-02T12:37:52.069Z,2.38
2023-02-02T12:41:10.080Z,2.39
2023-02-02T12:44:50.945Z,2.42
2023-02-02T12:48:31.082Z,2.40
2023-02-02T12:52:03.339Z,2.41
2023-02-02T12:55:47.015Z,2.43
2023-02-02T12:59:26.053Z,2.37
2023-02-02T13:03:02.414Z,2.31
2023-02-02T13:06:30.026Z,2.31
2023-02-02T13:09:57.664Z,2.31
2023-02-02T13:13:23.814Z,2.29
2023-02-02T13:16:27.183Z,2.27
2023-02-02T13:19:36.051Z,2.24
2023-02-02T13:22:42.599Z,2.23
2023-02-02T13:25:49.201Z,2.21
2023-02-02T13:28:58.199Z,2.21
2023-02-02T13:32:06.563Z,2.23
2023-02-02T13:35:49.278Z,2.23
2023-02-02T13:38:56.182Z,2.24
2023-02-02T13:41:58.675Z,2.23
2023-02-02T13:45:16.627Z,2.21
2023-02-02T13:48:30.226Z,2.21
2023-02-02T13:51:58.486Z,2.20
2023-02-02T13:55:19.237Z,2.13
2023-02-02T13:58:59.800Z,2.14
2023-02-02T14:02:02.409Z,2.08
2023-02-02T14:05:06.516Z,2.08
2023-02-02T14:08:21.381Z,2.08
2023-02-02T14:11:31.055Z,2.05
2023-02-02T14:14:36.931Z,2.03
2023-02-02T14:17:38.755Z,2.01
2023-02-02T14:20:44.619Z,2.02
2023-02-02T14:23:51.174Z,2.02
2023-02-02T14:26:57.688Z,2.01
2023-02-02T14:30:00.550Z,1.99
2023-02-02T14:33:20.838Z,2.00
2023-02-02T14:36:22.759Z,1.95
2023-02-02T14:39:30.240Z,1.96
2023-02-02T14:43:22.364Z,1.96
2023-02-02T14:46:33.998Z,1.93
2023-02-02T14:49:35.908Z,1.94
2023-02-02T14:52:37.750Z,1.91
2023-02-02T14:55:57.900Z,1.88
2023-02-02T14:59:02.033Z,1.88
2023-02-02T15:02:22.131Z,1.84
2023-02-02T15:05:30.712Z,1.85
2023-02-02T15:08:32.603Z,1.81
2023-02-02T15:12:03.104Z,1.80
2023-02-02T15:15:32.997Z,1.78
2023-02-02T15:18:44.479Z,1.76
2023-02-02T15:21:49.490Z,1.76
2023-02-02T15:24:53.090Z,1.73
2023-02-02T15:28:19.222Z,1.71
2023-02-02T15:31:44.002Z,1.72
2023-02-02T15:34:50.041Z,1.70
2023-02-02T15:38:00.427Z,1.67
2023-02-02T15:41:15.635Z,1.66
2023-02-02T15:44:26.600Z,1.68
2023-02-02T15:47:37.338Z,1.67
2023-02-02T15:50:46.352Z,1.62
2023-02-02T15:53:51.705Z,1.62
2023-02-02T15:56:55.518Z,1.64
2023-02-02T15:59:58.576Z,1.65
2023-02-02T16:03:18.190Z,1.66
2023-02-02T16:06:21.279Z,1.65
2023-02-02T16:09:26.797Z,1.67
2023-02-02T16:12:28.859Z,1.65
2023-02-02T16:15:34.107Z,1.65
2023-02-02T16:18:36.425Z,1.67
2023-02-02T16:21:46.066Z,1.65
2023-02-02T16:24:51.595Z,1.61
2023-02-02T16:27:54.023Z,1.63
2023-02-02T16:31:00.350Z,1.61
2023-02-02T16:34:02.770Z,1.60
2023-02-02T16:37:14.153Z,1.63
2023-02-02T16:40:29.741Z,1.61
2023-02-02T16:43:31.754Z,1.59
2023-02-02T16:47:00.255Z,1.62
2023-02-02T16:50:28.535Z,1.57
2023-02-02T16:53:30.673Z,1.59
2023-02-02T16:56:39.385Z,1.60
2023-02-02T16:59:41.253Z,1.56
2023-02-02T17:02:48.322Z,1.59
2023-02-02T17:05:54.112Z,1.57
2023-02-02T17:08:55.977Z,1.57
2023-02-02T17:12:02.112Z,1.59
2023-02-02T17:15:28.543Z,1.58
2023-02-02T17:18:30.571Z,1.55
2023-02-02T17:21:33.982Z,1.58
2023-02-02T17:24:36.064Z,1.57
2023-02-02T17:27:37.872Z,1.53
2023-02-02T17:30:41.795Z,1.51
2023-02-02T17:33:43.857Z,1.53
2023-02-02T17:36:45.685Z,1.50
2023-02-02T17:39:50.475Z,1.52
2023-02-02T17:42:53.580Z,1.46
2023-02-02T17:45:55.401Z,1.49
2023-02-02T17:48:57.962Z,1.46
2023-02-02T17:51:59.823Z,1.44
2023-02-02T17:55:01.685Z,1.42
2023-02-02T17:58:03.971Z,1.40
2023-02-02T18:01:06.968Z,1.41
2023-02-02T18:04:10.932Z,1.37
2023-02-02T18:07:12.772Z,1.41
2023-02-02T18:10:16.502Z,1.37
2023-02-02T18:13:20.287Z,1.35
2023-02-02T18:16:22.542Z,1.34
2023-02-02T18:19:24.880Z,1.32
2023-02-02T18:22:27.101Z,1.31
2023-02-02T18:25:29.234Z,1.33
2023-02-02T18:28:31.098Z,1.30
2023-02-02T18:31:33.017Z,1.32
2023-02-02T18:34:36.163Z,1.34
2023-02-02T18:37:38.937Z,1.34
2023-02-02T18:40:40.891Z,1.32
2023-02-02T18:43:42.857Z,1.36
2023-02-02T18:46:44.895Z,1.34
2023-02-02T18:49:46.780Z,1.34
2023-02-02T18:52:48.519Z,1.34
2023-02-02T18:55:51.637Z,1.31
2023-02-02T18:58:53.791Z,1.23
2023-02-02T19:01:55.970Z,1.23
2023-02-02T19:05:16.498Z,1.20
2023-02-02T19:08:18.322Z,1.21
2023-02-02T19:11:26.761Z,1.21
2023-02-02T19:14:33.276Z,1.20
2023-02-02T19:17:35.114Z,1.15
2023-02-02T19:20:38.037Z,1.12
2023-02-02T19:23:41.956Z,1.13
2023-02-02T19:26:49.454Z,1.08
2023-02-02T19:29:55.812Z,1.08
2023-02-02T19:32:57.690Z,1.10
2023-02-02T19:35:59.552Z,1.13
2023-02-02T19:39:11.427Z,1.14
2023-02-02T19:42:13.295Z,1.13
2023-02-02T19:45:24.470Z,1.18
2023-02-02T19:48:31.222Z,1.15
2023-02-02T19:51:33.095Z,1.17
2023-02-02T19:54:43.676Z,1.19
2023-02-02T19:57:45.718Z,1.16
2023-02-02T20:00:52.477Z,1.17
2023-02-02T20:03:55.260Z,1.16
2023-02-02T20:06:59.760Z,1.16
2023-02-02T20:10:19.718Z,1.19
2023-02-02T20:13:33.132Z,1.15
2023-02-02T20:16:41.694Z,1.15
2023-02-02T20:19:46.225Z,1.09
2023-02-02T20:22:48.060Z,1.13
2023-02-02T20:25:49.970Z,1.11
2023-02-02T20:28:54.926Z,1.11
2023-02-02T20:31:59.388Z,1.07
2023-02-02T20:35:14.016Z,1.07
2023-02-02T20:38:23.409Z,1.03
2023-02-02T20:41:26.313Z,1.07
2023-02-02T20:44:30.090Z,1.09
2023-02-02T20:47:31.993Z,1.10
2023-02-02T20:50:33.795Z,1.11
2023-02-02T20:53:35.788Z,1.13
2023-02-02T20:56:37.879Z,1.12
2023-02-02T20:59:39.766Z,1.13
2023-02-02T21:02:41.673Z,1.12
2023-02-02T21:05:43.606Z,1.09
2023-02-02T21:08:47.672Z,1.09
2023-02-02T21:11:49.574Z,1.11
2023-02-02T21:14:54.655Z,1.07
2023-02-02T21:17:56.477Z,1.06
2023-02-02T21:20:58.338Z,0.96
2023-02-02T21:24:00.855Z,0.99
2023-02-02T21:27:04.596Z,0.98
2023-02-02T21:30:08.424Z,1.01
2023-02-02T21:33:10.280Z,0.99
2023-02-02T21:36:24.829Z,1.03
2023-02-02T21:39:33.337Z,1.05
2023-02-02T21:42:35.679Z,1.02
2023-02-02T21:45:39.468Z,1.05
2023-02-02T21:48:42.065Z,1.06
2023-02-02T21:51:43.925Z,1.05
2023-02-02T21:54:47.508Z,1.01
2023-02-02T21:57:49.383Z,1.03
2023-02-02T22:00:57.498Z,1.05
2023-02-02T22:03:59.467Z,1.03
2023-02-02T22:07:12.672Z,1.08
2023-02-02T22:10:20.538Z,1.06
2023-02-02T22:13:25.025Z,1.09
2023-02-02T22:16:26.923Z,1.06
2023-02-02T22:19:33.194Z,1.08
2023-02-02T22:22:36.908Z,1.06
2023-02-02T22:25:40.831Z,1.05
2023-02-02T22:28:42.629Z,1.01
2023-02-02T22:31:44.533Z,1.03
2023-02-02T22:34:46.387Z,1.03
2023-02-02T22:37:48.201Z,1.04
2023-02-02T22:40:51.838Z,1.08
2023-02-02T22:43:53.695Z,1.10
2023-02-02T22:46:55.522Z,1.11
2023-02-02T22:49:57.386Z,1.11
2023-02-02T22:52:59.889Z,1.11
2023-02-02T22:56:01.774Z,1.14
2023-02-02T22:59:03.640Z,1.11
2023-02-02T23:02:05.510Z,1.12
2023-02-02T23:05:10.126Z,1.13
2023-02-02T23:08:11.998Z,1.10
2023-02-02T23:11:13.866Z,1.09
2023-02-02T23:14:15.765Z,1.11
2023-02-02T23:17:17.614Z,1.12
2023-02-02T23:20:19.613Z,1.11
2023-02-02T23:23:23.049Z,1.09
2023-02-02T23:26:25.307Z,1.15
2023-02-02T23:29:27.444Z,1.12
2023-02-02T23:32:29.254Z,1.11
2023-02-02T23:35:31.067Z,1.11
2023-02-02T23:38:32.946Z,1.10
2023-02-02T23:41:34.717Z,1.12
2023-02-02T23:44:36.618Z,1.12
2023-02-02T23:47:38.559Z,1.09
2023-02-02T23:50:40.938Z,1.08
2023-02-02T23:53:43.310Z,1.11
2023-02-02T23:56:45.302Z,1.10
2023-02-02T23:59:47.197Z,1.11
